createdAt,value
2024-02-01T00:01:47.816Z,0.0
2024-02-01T00:06:24.371Z,0.0
2024-02-01T00:09:45.215Z,0.0
2024-02-01T00:13:05.697Z,0.0
2024-02-01T00:16:26.374Z,0.0
2024-02-01T00:19:46.390Z,0.0
2024-02-01T00:23:06.284Z,0.0
2024-02-01T00:26:26.769Z,0.0
2024-02-01T00:29:46.798Z,0.0
2024-02-01T00:34:32.462Z,0.0
2024-02-01T00:37:52.600Z,0.0
2024-02-01T00:41:12.974Z,0.0
2024-02-01T00:44:34.329Z,0.0
2024-02-01T00:54:29.126Z,0.0
2024-02-01T00:57:49.392Z,0.0
2024-02-01T01:02:07.549Z,0.0
2024-02-01T01:05:28.053Z,0.0
2024-02-01T01:08:48.283Z,0.0
2024-02-01T01:12:10.167Z,0.0
2024-02-01T01:15:30.918Z,0.0
2024-02-01T01:18:51.003Z,0.0
2024-02-01T01:22:11.242Z,0.0
2024-02-01T01:25:31.913Z,0.0
2024-02-01T01:28:52.200Z,0.0
2024-02-01T01:32:13.884Z,0.0
2024-02-01T01:41:02.525Z,0.0
2024-02-01T01:44:23.126Z,0.0
2024-02-01T01:49:06.044Z,0.0
2024-02-01T01:52:27.316Z,0.0
2024-02-01T01:55:47.108Z,0.0
2024-02-01T01:59:07.190Z,0.0
2024-02-01T02:02:27.853Z,0.0
2024-02-01T02:05:47.853Z,0.0
2024-02-01T02:09:07.907Z,0.0
2024-02-01T02:12:28.437Z,0.0
2024-02-01T02:15:48.594Z,0.0
2024-02-01T02:19:55.867Z,0.0
2024-02-01T02:23:18.170Z,0.0
2024-02-01T02:26:39.158Z,0.0
2024-02-01T02:29:59.189Z,0.0
2024-02-01T02:33:20.020Z,0.0
2024-02-01T02:40:24.471Z,0.0
2024-02-01T02:43:44.840Z,0.0
2024-02-01T02:47:05.430Z,0.0
2024-02-01T02:50:26.502Z,0.0
2024-02-01T02:54:00.455Z,0.0
2024-02-01T02:57:20.618Z,0.0
2024-02-01T03:00:41.061Z,0.0
2024-02-01T03:04:01.803Z,0.0
2024-02-01T03:07:22.755Z,0.0
2024-02-01T03:10:42.794Z,0.0
2024-02-01T03:14:03.095Z,0.0
2024-02-01T03:17:24.161Z,0.0
2024-02-01T03:25:31.051Z,0.0
2024-02-01T03:30:04.117Z,0.0
2024-02-01T03:33:25.054Z,0.0
2024-02-01T03:36:44.322Z,0.0
2024-02-01T03:40:04.476Z,0.0
2024-02-01T03:43:25.061Z,0.0
2024-02-01T03:46:45.441Z,0.0
2024-02-01T03:50:06.076Z,0.0
2024-02-01T03:54:48.071Z,0.0
2024-02-01T03:58:08.340Z,0.0
2024-02-01T04:01:29.334Z,0.0
2024-02-01T04:04:49.675Z,0.0
2024-02-01T04:08:10.400Z,0.0
2024-02-01T04:11:31.200Z,0.0
2024-02-01T04:18:01.831Z,0.0
2024-02-01T04:21:22.957Z,0.0
2024-02-01T04:24:44.037Z,0.0
2024-02-01T04:28:03.913Z,0.0
2024-02-01T04:33:41.470Z,0.0
2024-02-01T04:37:01.600Z,0.0
2024-02-01T04:40:22.449Z,0.0
2024-02-01T04:43:42.928Z,0.0
2024-02-01T04:47:03.202Z,0.0
2024-02-01T04:50:24.287Z,0.0
2024-02-01T04:53:44.583Z,0.0
2024-02-01T04:57:04.398Z,0.0
2024-02-01T05:00:24.659Z,0.0
2024-02-01T05:03:44.964Z,0.0
2024-02-01T05:07:05.368Z,0.0
2024-02-01T05:10:25.935Z,0.0
2024-02-01T05:13:46.512Z,0.0
2024-02-01T05:17:06.777Z,0.0
2024-02-01T05:20:27.973Z,0.0
2024-02-01T05:23:48.513Z,0.0
2024-02-01T05:27:08.152Z,0.0
2024-02-01T05:30:28.803Z,0.0
2024-02-01T05:33:49.269Z,0.0
2024-02-01T05:37:09.237Z,0.0
2024-02-01T05:40:29.700Z,0.0
2024-02-01T05:43:50.776Z,0.0
2024-02-01T05:47:11.563Z,0.0
2024-02-01T05:50:32.215Z,0.0
2024-02-01T05:53:52.449Z,0.0
2024-02-01T05:59:40.478Z,0.0
2024-02-01T06:03:00.818Z,0.0
2024-02-01T06:08:59.322Z,0.0
2024-02-01T06:12:20.784Z,0.0
2024-02-01T06:15:40.677Z,0.0
2024-02-01T06:21:40.410Z,0.0
2024-02-01T06:25:01.062Z,0.0
2024-02-01T06:28:21.542Z,0.0
2024-02-01T06:31:41.689Z,0.0
2024-02-01T06:35:01.850Z,0.0
2024-02-01T06:38:23.581Z,0.0
2024-02-01T06:41:43.271Z,0.0
2024-02-01T06:45:04.121Z,0.0
2024-02-01T06:48:24.867Z,0.0
2024-02-01T06:51:45.397Z,0.0
2024-02-01T06:57:09.329Z,0.0
2024-02-01T07:00:30.069Z,0.0
2024-02-01T07:03:50.490Z,0.0
2024-02-01T07:07:11.456Z,0.0
2024-02-01T07:12:23.034Z,0.0
2024-02-01T07:16:04.086Z,0.0
2024-02-01T07:19:24.613Z,0.0
2024-02-01T07:25:24.465Z,4.3214765100671135
2024-02-01T07:28:44.427Z,6.084563758389261
2024-02-01T07:35:04.107Z,7.629530201342286
2024-02-01T07:39:39.035Z,8.99261744966444
2024-02-01T07:42:59.293Z,9.773154362416102
2024-02-01T07:47:55.955Z,11.448993288590604
2024-02-01T07:51:22.235Z,12.7006711409396
2024-02-01T07:54:42.750Z,13.624161073825494
2024-02-01T07:58:03.102Z,13.95637583892616
2024-02-01T08:01:44.245Z,14.550335570469793
2024-02-01T08:05:06.471Z,15.65838926174496
2024-02-01T08:08:34.976Z,16.737583892617458
2024-02-01T08:14:16.255Z,18.71140939597315
2024-02-01T08:17:38.303Z,19.309395973154373
2024-02-01T08:21:34.290Z,19.88926174496641
2024-02-01T08:24:54.459Z,20.33087248322148
2024-02-01T08:31:28.443Z,22.108724832214772
2024-02-01T08:34:49.754Z,23.048322147651
2024-02-01T08:38:10.799Z,23.975838926174482
2024-02-01T08:41:32.436Z,25.94161073825503
2024-02-01T08:44:52.606Z,26.741610738255066
2024-02-01T08:48:13.317Z,27.403355704697983
2024-02-01T08:51:33.845Z,28.20536912751674
2024-02-01T08:54:54.128Z,28.729530201342282
2024-02-01T08:58:15.785Z,29.18859060402685
2024-02-01T09:01:36.760Z,29.979865771812094
2024-02-01T09:04:57.399Z,32.17046979865772
2024-02-01T09:10:44.790Z,37.60268456375838
2024-02-01T09:16:05.452Z,35.38255033557048
2024-02-01T09:19:26.694Z,48.537583892617434
2024-02-01T09:22:47.384Z,50.391275167785196
2024-02-01T09:26:10.272Z,43.94496644295305
2024-02-01T09:29:31.316Z,39.82147651006715
2024-02-01T09:32:51.451Z,45.7261744966443
2024-02-01T09:36:11.342Z,47.12080536912752
2024-02-01T09:39:33.634Z,55.49395973154366
2024-02-01T09:42:54.818Z,70.03691275167783
2024-02-01T09:46:15.562Z,57.863758389261776
2024-02-01T09:51:01.579Z,45.43154362416107
2024-02-01T09:54:22.173Z,49.94832214765098
2024-02-01T09:57:42.872Z,49.13624161073824
2024-02-01T10:01:03.485Z,53.20201342281877
2024-02-01T10:04:24.957Z,70.97852348993287
2024-02-01T10:07:44.827Z,55.87718120805372
2024-02-01T10:11:05.184Z,53.773154362416086
2024-02-01T10:14:26.059Z,54.275838926174536
2024-02-01T10:20:04.806Z,56.759060402684575
2024-02-01T10:23:25.782Z,66.1060402684564
2024-02-01T10:27:27.301Z,57.89060402684563
2024-02-01T10:30:49.887Z,66.03758389261742
2024-02-01T10:34:12.876Z,76.19798657718123
2024-02-01T10:37:36.063Z,77.36442953020139
2024-02-01T10:40:55.605Z,106.97583892617439
2024-02-01T10:44:16.724Z,98.13087248322148
2024-02-01T10:47:37.829Z,121.05570469798664
2024-02-01T10:50:58.157Z,131.05167785234892
2024-02-01T10:54:18.657Z,134.9664429530203
2024-02-01T10:57:38.281Z,189.7295302013422
2024-02-01T11:00:58.872Z,124.43825503355717
2024-02-01T11:04:19.333Z,151.46040268456383
2024-02-01T11:10:44.512Z,139.6395973154364
2024-02-01T11:14:04.667Z,200.8241610738256
2024-02-01T11:17:25.889Z,183.7449664429529
2024-02-01T11:20:45.953Z,174.91610738255028
2024-02-01T11:24:06.015Z,133.49731543624156
2024-02-01T11:27:26.372Z,159.50067114093963
2024-02-01T11:30:46.279Z,99.63087248322141
2024-02-01T11:34:06.383Z,95.63355704697985
2024-02-01T11:37:29.262Z,134.9563758389262
2024-02-01T11:40:50.719Z,121.11275167785217
2024-02-01T11:44:11.116Z,96.0026845637584
2024-02-01T11:48:29.766Z,86.00604026845639
2024-02-01T11:51:50.196Z,88.88791946308729
2024-02-01T11:55:09.926Z,60.565771812080555
2024-02-01T11:58:31.024Z,46.94832214765103
2024-02-01T12:01:51.022Z,47.32147651006711
2024-02-01T12:05:11.257Z,97.41610738255032
2024-02-01T12:08:34.326Z,83.5651006711409
2024-02-01T12:11:55.430Z,47.946308724832164
2024-02-01T12:15:15.628Z,57.36375838926181
2024-02-01T12:18:35.904Z,69.71812080536918
2024-02-01T12:21:56.578Z,98.69597315436242
2024-02-01T12:25:17.475Z,84.15503355704698
2024-02-01T12:29:38.572Z,53.31409395973156
2024-02-01T12:32:59.267Z,48.957046979865794
2024-02-01T12:36:20.221Z,58.6885906040268
2024-02-01T12:39:40.057Z,74.58926174496641
2024-02-01T12:43:00.588Z,132.74161073825502
2024-02-01T12:46:44.570Z,89.17382550335567
2024-02-01T12:50:04.824Z,75.15771812080533
2024-02-01T12:53:25.944Z,86.70335570469797
2024-02-01T12:56:46.232Z,64.97382550335571
2024-02-01T13:00:06.196Z,74.68791946308727
2024-02-01T13:06:09.652Z,55.51677852348991
2024-02-01T13:09:31.361Z,61.46375838926177
2024-02-01T13:12:51.770Z,40.89664429530204
2024-02-01T13:16:11.989Z,47.758389261744945
2024-02-01T13:22:45.147Z,47.19060402684564
2024-02-01T13:26:05.760Z,36.65436241610736
2024-02-01T13:29:27.025Z,33.91342281879192
2024-02-01T13:38:48.999Z,49.20469798657718
2024-02-01T13:42:10.030Z,37.14026845637583
2024-02-01T13:45:30.707Z,30.675838926174496
2024-02-01T13:48:51.490Z,28.42751677852349
2024-02-01T13:52:11.985Z,23.24563758389263
2024-02-01T13:57:39.432Z,22.697315436241613
2024-02-01T14:00:59.888Z,22.62147651006712
2024-02-01T14:04:21.063Z,24.814765100671142
2024-02-01T14:07:40.957Z,25.97583892617452
2024-02-01T14:11:01.316Z,24.953020134228208
2024-02-01T14:14:23.332Z,23.479194630872467
2024-02-01T14:17:43.925Z,24.33758389261744
2024-02-01T14:21:04.093Z,28.558389261744978
2024-02-01T14:24:26.118Z,29.834228187919454
2024-02-01T14:27:46.566Z,27.97046979865772
2024-02-01T14:31:06.432Z,26.197315436241613
2024-02-01T14:34:27.556Z,23.544966442953022
2024-02-01T14:37:48.504Z,19.816107382550324
2024-02-01T14:41:08.663Z,17.91946308724832
2024-02-01T14:44:29.323Z,16.393959731543625
2024-02-01T14:47:49.055Z,15.79261744966445
2024-02-01T14:51:08.890Z,15.197986577181217
2024-02-01T14:54:29.495Z,14.39194630872482
2024-02-01T14:57:49.580Z,13.88791946308724
2024-02-01T15:03:23.969Z,13.359060402684545
2024-02-01T15:06:44.521Z,12.803355704697971
2024-02-01T15:10:04.935Z,12.256375838926155
2024-02-01T15:13:26.038Z,11.883221476510041
2024-02-01T15:16:46.123Z,11.362416107382536
2024-02-01T15:21:34.194Z,10.232214765100672
2024-02-01T15:24:54.629Z,9.537583892617477
2024-02-01T15:32:01.990Z,8.508724832214776
2024-02-01T15:35:23.066Z,8.110738255033565
2024-02-01T15:41:23.957Z,7.232885906040275
2024-02-01T15:44:50.567Z,6.165771812080544
2024-02-01T15:48:27.574Z,5.146308724832218
2024-02-01T15:51:48.863Z,4.5
2024-02-01T15:55:08.808Z,3.7000000000000006
2024-02-01T15:58:30.039Z,2.289261744966441
2024-02-01T16:01:50.496Z,0.0
2024-02-01T16:05:10.980Z,0.0
2024-02-01T16:08:31.668Z,0.0
2024-02-01T16:11:52.083Z,0.0
2024-02-01T16:16:31.617Z,0.0
2024-02-01T16:19:52.201Z,0.0
2024-02-01T16:23:12.733Z,0.0
2024-02-01T16:26:33.520Z,0.0
2024-02-01T16:29:54.163Z,0.0
2024-02-01T16:33:14.131Z,0.0
2024-02-01T16:36:34.441Z,0.0
2024-02-01T16:39:54.974Z,0.0
2024-02-01T16:43:15.390Z,0.0
2024-02-01T16:46:36.366Z,0.0
2024-02-01T16:51:20.790Z,0.0
2024-02-01T17:03:20.641Z,0.0
2024-02-01T17:15:30.810Z,0.0
2024-02-01T17:18:50.510Z,0.0
2024-02-01T17:22:11.005Z,0.0
2024-02-01T17:25:31.546Z,0.0
2024-02-01T17:28:51.632Z,0.0
2024-02-01T17:43:02.671Z,0.0
2024-02-01T17:46:24.064Z,0.0
2024-02-01T17:49:44.494Z,0.0
2024-02-01T17:58:40.540Z,0.0
2024-02-01T18:07:57.964Z,0.0
2024-02-01T18:11:19.003Z,0.0
2024-02-01T18:14:39.176Z,0.0
2024-02-01T18:17:59.632Z,0.0
2024-02-01T18:21:21.925Z,0.0
2024-02-01T18:24:42.865Z,0.0
2024-02-01T18:28:04.659Z,0.0
2024-02-01T18:31:26.154Z,0.0
2024-02-01T18:34:47.760Z,0.0
2024-02-01T18:40:43.895Z,0.0
2024-02-01T18:44:03.951Z,0.0
2024-02-01T18:49:27.710Z,0.0
2024-02-01T18:52:49.132Z,0.0
2024-02-01T18:56:09.625Z,0.0
2024-02-01T18:59:30.481Z,0.0
2024-02-01T19:02:50.785Z,0.0
2024-02-01T19:06:10.828Z,0.0
2024-02-01T19:09:31.521Z,0.0
2024-02-01T19:12:51.775Z,0.0
2024-02-01T19:16:11.728Z,0.0
2024-02-01T19:19:32.767Z,0.0
2024-02-01T19:22:53.202Z,0.0
2024-02-01T19:26:34.545Z,0.0
2024-02-01T19:29:54.875Z,0.0
2024-02-01T19:33:16.046Z,0.0
2024-02-01T19:36:36.930Z,0.0
2024-02-01T19:43:10.780Z,0.0
2024-02-01T19:46:31.621Z,0.0
2024-02-01T19:49:51.629Z,0.0
2024-02-01T19:53:11.685Z,0.0
2024-02-01T19:56:33.155Z,0.0
2024-02-01T19:59:53.364Z,0.0
2024-02-01T20:03:13.806Z,0.0
2024-02-01T20:06:34.604Z,0.0
2024-02-01T20:10:11.343Z,0.0
2024-02-01T20:16:44.410Z,0.0
2024-02-01T20:20:07.290Z,0.0
2024-02-01T20:23:30.766Z,0.0
2024-02-01T20:26:51.701Z,0.0
2024-02-01T20:30:12.417Z,0.0
2024-02-01T20:33:32.654Z,0.0
2024-02-01T20:36:53.300Z,0.0
2024-02-01T20:40:13.958Z,0.0
2024-02-01T20:43:34.474Z,0.0
2024-02-01T20:46:54.401Z,0.0
2024-02-01T20:50:14.356Z,0.0
2024-02-01T20:53:34.632Z,0.0
2024-02-01T20:56:54.716Z,0.0
2024-02-01T21:00:15.500Z,0.0
2024-02-01T21:03:36.378Z,0.0
2024-02-01T21:06:57.298Z,0.0
2024-02-01T21:10:18.622Z,0.0
2024-02-01T21:15:06.103Z,0.0
2024-02-01T21:18:26.872Z,0.0
2024-02-01T21:21:48.003Z,0.0
2024-02-01T21:25:07.904Z,0.0
2024-02-01T21:28:28.746Z,0.0
2024-02-01T21:32:10.906Z,0.0
2024-02-01T21:35:33.097Z,0.0
2024-02-01T21:38:54.033Z,0.0
2024-02-01T21:42:14.285Z,0.0
2024-02-01T21:45:35.714Z,0.0
2024-02-01T21:48:56.103Z,0.0
2024-02-01T21:52:17.448Z,0.0
2024-02-01T21:55:38.597Z,0.0
2024-02-01T21:58:58.821Z,0.0
2024-02-01T22:02:19.530Z,0.0
2024-02-01T22:05:40.249Z,0.0
2024-02-01T22:09:01.025Z,0.0
2024-02-01T22:12:22.341Z,0.0
2024-02-01T22:15:43.157Z,0.0
2024-02-01T22:19:03.454Z,0.0
2024-02-01T22:22:23.170Z,0.0
2024-02-01T22:25:43.521Z,0.0
2024-02-01T22:29:03.068Z,0.0
2024-02-01T22:32:24.094Z,0.0
2024-02-01T22:38:38.160Z,0.0
2024-02-01T22:41:58.439Z,0.0
2024-02-01T22:45:19.129Z,0.0
2024-02-01T22:48:40.022Z,0.0
2024-02-01T22:53:31.544Z,0.0
2024-02-01T22:56:51.503Z,0.0
2024-02-01T23:00:11.760Z,0.0
2024-02-01T23:03:32.805Z,0.0
2024-02-01T23:06:52.762Z,0.0
2024-02-01T23:10:12.787Z,0.0
2024-02-01T23:13:33.347Z,0.0
2024-02-01T23:16:52.918Z,0.0
2024-02-01T23:23:11.871Z,0.0
2024-02-01T23:26:49.477Z,0.0
2024-02-01T23:30:09.447Z,0.0
2024-02-01T23:33:30.494Z,0.0
2024-02-01T23:36:50.600Z,0.0
2024-02-01T23:40:10.550Z,0.0
2024-02-01T23:43:30.914Z,0.0
2024-02-01T23:46:50.954Z,0.0
2024-02-01T23:50:11.049Z,0.0
2024-02-01T23:53:32.122Z,0.0
2024-02-01T23:56:52.154Z,0.0
